createdAt,value
2022-09-12T00:01:53.961Z,7.57
2022-09-12T00:04:27.001Z,8.85
2022-09-12T00:07:01.533Z,7.65
2022-09-12T00:09:36.080Z,10.30
2022-09-12T00:14:39.198Z,9.30
2022-09-12T00:17:11.096Z,11.77
2022-09-12T00:19:45.506Z,9.32
2022-09-12T00:22:19.962Z,10.85
2022-09-12T00:24:51.813Z,8.95
2022-09-12T00:27:23.381Z,7.28
2022-09-12T00:29:57.797Z,94.18
2022-09-12T00:32:29.461Z,9.55
2022-09-12T00:35:02.817Z,8.13
2022-09-12T00:37:36.701Z,7.97
2022-09-12T00:40:08.666Z,7.80
2022-09-12T00:42:40.300Z,7.20
2022-09-12T00:45:24.149Z,8.00
2022-09-12T00:48:03.456Z,9.05
2022-09-12T00:50:35.061Z,11.60
2022-09-12T00:53:08.768Z,10.18
2022-09-12T00:55:49.942Z,8.82
2022-09-12T00:58:51.258Z,9.05
2022-09-12T01:01:23.093Z,9.30
2022-09-12T01:03:54.739Z,9.10
2022-09-12T01:06:30.156Z,8.93
2022-09-12T01:09:04.271Z,8.95
2022-09-12T01:11:37.921Z,9.35
2022-09-12T01:14:10.349Z,9.10
2022-09-12T01:16:45.544Z,8.63
2022-09-12T01:19:35.232Z,8.35
2022-09-12T01:22:40.376Z,9.63
2022-09-12T01:25:20.933Z,8.70
2022-09-12T01:28:32.217Z,10.45
2022-09-12T01:31:17.877Z,7.65
2022-09-12T01:34:14.089Z,10.90
2022-09-12T01:36:54.869Z,8.15
2022-09-12T01:40:17.963Z,9.32
2022-09-12T01:43:04.884Z,10.98
2022-09-12T01:45:53.778Z,7.22
2022-09-12T01:48:56.989Z,10.10
2022-09-12T01:51:36.381Z,11.57
2022-09-12T01:54:21.569Z,9.00
2022-09-12T01:57:03.720Z,10.77
2022-09-12T01:59:46.001Z,8.75
2022-09-12T02:02:31.078Z,8.48
2022-09-12T02:05:22.201Z,12.57
2022-09-12T02:08:17.217Z,9.73
2022-09-12T02:11:13.658Z,9.73
2022-09-12T02:14:13.846Z,12.20
2022-09-12T02:16:53.341Z,9.88
2022-09-12T02:19:36.862Z,9.70
2022-09-12T02:22:16.517Z,8.20
2022-09-12T02:24:53.937Z,13.25
2022-09-12T02:27:37.880Z,7.90
2022-09-12T02:30:16.849Z,8.32
2022-09-12T02:33:11.540Z,11.10
2022-09-12T02:35:47.127Z,8.68
2022-09-12T02:38:41.113Z,10.88
2022-09-12T02:41:15.836Z,8.90
2022-09-12T02:43:50.631Z,10.23
2022-09-12T02:46:47.545Z,10.13
2022-09-12T02:49:19.160Z,10.95
2022-09-12T02:51:51.492Z,10.18
2022-09-12T02:54:24.288Z,8.45
2022-09-12T02:56:58.130Z,13.30
2022-09-12T02:59:29.756Z,9.38
2022-09-12T03:02:15.341Z,10.23
2022-09-12T03:05:10.032Z,10.02
2022-09-12T03:08:15.153Z,10.50
2022-09-12T03:11:08.296Z,11.75
2022-09-12T03:14:19.199Z,124.97
2022-09-12T03:17:17.409Z,10.90
2022-09-12T03:19:54.692Z,10.05
2022-09-12T03:22:57.055Z,9.00
2022-09-12T03:25:41.404Z,11.30
2022-09-12T03:28:17.317Z,10.05
2022-09-12T03:30:54.223Z,9.52
2022-09-12T03:33:26.668Z,11.10
2022-09-12T03:36:03.339Z,13.05
2022-09-12T03:38:34.894Z,9.95
2022-09-12T03:41:09.564Z,11.52
2022-09-12T03:46:15.238Z,8.98
2022-09-12T03:48:46.922Z,12.68
2022-09-12T03:51:18.701Z,12.85
2022-09-12T03:53:56.023Z,10.25
2022-09-12T03:56:30.293Z,11.02
2022-09-12T03:59:06.889Z,11.02
2022-09-12T04:01:38.612Z,11.27
2022-09-12T04:04:10.242Z,11.07
2022-09-12T04:06:42.937Z,13.88
2022-09-12T04:09:14.953Z,14.57
2022-09-12T04:11:46.672Z,12.38
2022-09-12T04:14:21.400Z,14.73
2022-09-12T04:16:53.189Z,17.35
2022-09-12T04:19:26.551Z,15.63
2022-09-12T04:22:00.210Z,16.08
2022-09-12T04:24:31.792Z,14.20
2022-09-12T04:27:07.822Z,14.85
2022-09-12T04:29:39.604Z,16.55
2022-09-12T04:32:11.724Z,14.23
2022-09-12T04:34:43.309Z,13.45
2022-09-12T04:37:14.983Z,13.63
2022-09-12T04:39:49.124Z,13.25
2022-09-12T04:42:20.773Z,14.65
2022-09-12T04:44:52.397Z,13.57
2022-09-12T04:47:24.033Z,16.15
2022-09-12T04:49:58.309Z,13.90
2022-09-12T04:52:32.681Z,16.00
2022-09-12T04:55:08.682Z,14.57
2022-09-12T04:57:40.374Z,14.10
2022-09-12T05:00:13.482Z,11.88
2022-09-12T05:02:48.109Z,11.73
2022-09-12T05:07:53.842Z,10.57
2022-09-12T05:10:25.416Z,10.90
2022-09-12T05:12:57.037Z,14.63
2022-09-12T05:15:31.311Z,14.30
2022-09-12T05:18:02.906Z,10.70
2022-09-12T05:20:34.517Z,13.25
2022-09-12T05:23:06.109Z,12.10
2022-09-12T05:25:37.667Z,10.57
2022-09-12T05:28:11.588Z,10.65
2022-09-12T05:30:43.178Z,10.27
2022-09-12T05:33:20.980Z,11.43
2022-09-12T05:35:58.494Z,9.50
2022-09-12T05:38:30.127Z,9.25
2022-09-12T05:41:17.491Z,11.25
2022-09-12T05:43:56.893Z,9.93
2022-09-12T05:46:31.588Z,12.93
2022-09-12T05:49:06.012Z,11.43
2022-09-12T05:51:40.876Z,12.18
2022-09-12T05:54:17.098Z,13.68
2022-09-12T05:56:50.146Z,11.52
2022-09-12T05:59:24.111Z,12.07
2022-09-12T06:01:55.796Z,10.88
2022-09-12T06:04:28.362Z,10.50
2022-09-12T06:06:59.993Z,14.80
2022-09-12T06:09:32.829Z,10.73
2022-09-12T06:12:08.662Z,14.45
2022-09-12T06:14:43.522Z,14.45
2022-09-12T06:17:15.105Z,12.88
2022-09-12T06:19:46.697Z,9.45
2022-09-12T06:22:19.206Z,12.85
2022-09-12T06:24:53.736Z,13.48
2022-09-12T06:27:30.599Z,11.80
2022-09-12T06:32:36.008Z,12.98
2022-09-12T06:35:11.304Z,12.43
2022-09-12T06:37:45.709Z,14.07
2022-09-12T06:40:17.664Z,13.88
2022-09-12T06:42:50.704Z,13.13
2022-09-12T06:45:41.463Z,12.98
2022-09-12T06:48:13.033Z,12.82
2022-09-12T06:50:55.528Z,12.20
2022-09-12T06:53:34.315Z,11.82
2022-09-12T06:56:10.938Z,12.95
2022-09-12T06:58:47.067Z,11.88
2022-09-12T07:01:21.438Z,13.20
2022-09-12T07:04:12.496Z,12.80
2022-09-12T07:06:45.605Z,12.70
2022-09-12T07:09:17.214Z,10.35
2022-09-12T07:11:48.806Z,12.63
2022-09-12T07:14:20.402Z,12.23
2022-09-12T07:16:52.331Z,13.90
2022-09-12T07:19:24.731Z,13.13
2022-09-12T07:21:58.900Z,12.15
2022-09-12T07:24:30.517Z,11.30
2022-09-12T07:27:02.134Z,13.10
2022-09-12T07:29:37.025Z,10.73
2022-09-12T07:32:09.247Z,12.43
2022-09-12T07:34:40.910Z,9.18
2022-09-12T07:37:14.700Z,10.87
2022-09-12T07:39:49.748Z,10.45
2022-09-12T07:42:24.301Z,10.90
2022-09-12T07:44:55.862Z,10.00
2022-09-12T07:47:30.154Z,14.25
2022-09-12T07:50:02.382Z,13.25
2022-09-12T07:52:34.045Z,13.80
2022-09-12T07:55:10.575Z,10.25
2022-09-12T07:57:46.672Z,10.57
2022-09-12T08:00:18.972Z,8.63
2022-09-12T08:02:56.651Z,10.43
2022-09-12T08:05:30.984Z,11.02
2022-09-12T08:08:02.765Z,10.27
2022-09-12T08:10:34.419Z,21.17
2022-09-12T08:13:06.096Z,13.88
2022-09-12T08:15:40.171Z,10.10
2022-09-12T08:18:11.784Z,38.00
2022-09-12T08:20:43.349Z,9.75
2022-09-12T08:23:40.639Z,10.10
2022-09-12T08:26:14.976Z,9.35
2022-09-12T08:31:27.525Z,8.57
2022-09-12T08:33:59.182Z,7.78
2022-09-12T08:36:34.781Z,10.32
2022-09-12T08:39:07.595Z,10.70
2022-09-12T08:41:46.117Z,8.15
2022-09-12T08:44:36.089Z,8.63
2022-09-12T08:47:19.905Z,8.20
2022-09-12T08:49:57.472Z,46.15
2022-09-12T08:53:02.734Z,7.18
2022-09-12T08:55:37.227Z,10.27
2022-09-12T08:58:17.858Z,25.90
2022-09-12T09:00:59.507Z,6.20
2022-09-12T09:04:03.876Z,8.02
2022-09-12T09:06:58.332Z,9.75
2022-09-12T09:09:39.575Z,6.28
2022-09-12T09:12:32.773Z,7.88
2022-09-12T09:15:28.313Z,6.05
2022-09-12T09:18:22.724Z,7.85
2022-09-12T09:21:23.198Z,5.97
2022-09-12T09:24:05.087Z,7.07
2022-09-12T09:26:51.795Z,10.38
2022-09-12T09:29:30.180Z,8.05
2022-09-12T09:32:17.993Z,10.85
2022-09-12T09:34:49.669Z,8.48
2022-09-12T09:37:39.170Z,6.90
2022-09-12T09:40:28.192Z,7.57
2022-09-12T09:43:29.375Z,7.22
2022-09-12T09:46:01.044Z,7.95
2022-09-12T09:48:37.639Z,5.47
2022-09-12T09:51:09.676Z,192.32
2022-09-12T09:53:51.758Z,5.00
2022-09-12T09:56:34.555Z,6.07
2022-09-12T09:59:16.135Z,5.28
2022-09-12T10:01:55.133Z,8.02
2022-09-12T10:04:59.041Z,9.45
2022-09-12T10:07:33.565Z,5.32
2022-09-12T10:10:07.752Z,5.05
2022-09-12T10:15:18.122Z,6.68
2022-09-12T10:17:51.068Z,5.30
2022-09-12T10:20:46.881Z,4.03
2022-09-12T10:23:18.718Z,5.30
2022-09-12T10:26:05.162Z,8.55
2022-09-12T10:28:55.954Z,4.28
2022-09-12T10:31:39.119Z,4.93
2022-09-12T10:34:44.669Z,3.40
2022-09-12T10:37:40.603Z,3.45
2022-09-12T10:40:26.363Z,4.85
2022-09-12T10:42:59.880Z,3.95
2022-09-12T10:45:38.464Z,3.00
2022-09-12T10:48:31.794Z,3.50
2022-09-12T10:51:03.422Z,3.65
2022-09-12T10:53:46.420Z,4.28
2022-09-12T10:56:44.440Z,2.67
2022-09-12T10:59:48.390Z,5.78
2022-09-12T11:02:30.501Z,3.57
2022-09-12T11:05:11.704Z,5.30
2022-09-12T11:07:53.082Z,3.08
2022-09-12T11:10:32.048Z,4.20
2022-09-12T11:13:29.996Z,3.00
2022-09-12T11:16:52.733Z,4.97
2022-09-12T11:19:50.949Z,2.63
2022-09-12T11:22:43.304Z,2.95
2022-09-12T11:25:52.387Z,5.53
2022-09-12T11:28:47.446Z,6.90
2022-09-12T11:31:43.656Z,5.38
2022-09-12T11:34:28.533Z,4.43
2022-09-12T11:37:20.333Z,5.25
2022-09-12T11:39:55.829Z,6.30
2022-09-12T11:42:49.572Z,5.85
2022-09-12T11:45:35.337Z,4.68
2022-09-12T11:48:14.545Z,6.50
2022-09-12T11:50:49.011Z,132.40
2022-09-12T11:53:28.510Z,4.30
2022-09-12T11:56:17.355Z,5.63
2022-09-12T11:58:59.585Z,5.00
2022-09-12T12:01:45.008Z,3.70
2022-09-12T12:04:27.766Z,4.10
2022-09-12T12:07:10.731Z,3.55
2022-09-12T12:09:51.078Z,3.40
2022-09-12T12:12:27.752Z,3.22
2022-09-12T12:15:00.496Z,3.10
2022-09-12T12:17:34.891Z,3.38
2022-09-12T12:20:09.708Z,3.95
2022-09-12T12:22:53.093Z,4.45
2022-09-12T12:25:49.310Z,2.95
2022-09-12T12:28:57.563Z,5.15
2022-09-12T12:31:32.111Z,3.30
2022-09-12T12:34:05.849Z,3.92
2022-09-12T12:36:40.935Z,4.70
2022-09-12T12:39:34.389Z,4.13
2022-09-12T12:42:06.241Z,4.20
2022-09-12T12:44:48.611Z,4.15
2022-09-12T12:47:34.155Z,3.20
2022-09-12T12:50:07.795Z,5.30
2022-09-12T12:52:55.483Z,4.13
2022-09-12T12:55:50.389Z,4.00
2022-09-12T12:58:31.100Z,4.15
2022-09-12T13:01:21.336Z,4.18
2022-09-12T13:04:02.582Z,3.40
2022-09-12T13:06:35.964Z,3.95
2022-09-12T13:09:25.034Z,2.67
2022-09-12T13:12:08.087Z,3.90
2022-09-12T13:14:42.791Z,4.28
2022-09-12T13:17:37.269Z,4.70
2022-09-12T13:20:28.443Z,4.88
2022-09-12T13:23:03.675Z,3.20
2022-09-12T13:25:37.029Z,4.85
2022-09-12T13:28:20.557Z,4.10
2022-09-12T13:31:03.636Z,4.45
2022-09-12T13:33:55.942Z,4.28
2022-09-12T13:36:27.538Z,4.63
2022-09-12T13:39:21.333Z,4.63
2022-09-12T13:42:21.088Z,8.20
2022-09-12T13:44:56.027Z,3.65
2022-09-12T13:47:50.376Z,4.55
2022-09-12T13:50:28.631Z,3.47
2022-09-12T13:53:12.698Z,3.83
2022-09-12T13:55:52.003Z,5.10
2022-09-12T13:58:32.296Z,3.38
2022-09-12T14:01:09.686Z,6.30
2022-09-12T14:04:20.392Z,4.40
2022-09-12T14:06:53.204Z,3.00
2022-09-12T14:09:49.095Z,3.42
2022-09-12T14:12:26.344Z,3.53
2022-09-12T14:14:58.546Z,2.70
2022-09-12T14:17:36.153Z,3.42
2022-09-12T14:20:16.217Z,4.40
2022-09-12T14:22:51.154Z,5.22
2022-09-12T14:25:30.084Z,3.35
2022-09-12T14:28:06.110Z,4.03
2022-09-12T14:30:39.059Z,5.10
2022-09-12T14:33:19.615Z,5.47
2022-09-12T14:36:08.208Z,3.92
2022-09-12T14:38:48.299Z,3.63
2022-09-12T14:41:40.484Z,5.05
2022-09-12T14:44:25.292Z,3.72
2022-09-12T14:47:18.047Z,3.95
2022-09-12T14:49:51.694Z,6.03
2022-09-12T14:52:32.339Z,5.15
2022-09-12T14:55:22.253Z,3.47
2022-09-12T14:58:29.698Z,5.90
2022-09-12T15:01:22.913Z,3.33
2022-09-12T15:03:56.149Z,4.22
2022-09-12T15:06:36.586Z,4.82
2022-09-12T15:09:14.057Z,5.68
2022-09-12T15:11:45.898Z,3.45
2022-09-12T15:14:17.973Z,4.18
2022-09-12T15:16:49.639Z,3.67
2022-09-12T15:19:24.150Z,5.72
2022-09-12T15:22:00.221Z,4.32
2022-09-12T15:24:31.840Z,4.32
2022-09-12T15:27:14.993Z,5.63
2022-09-12T15:29:46.616Z,3.63
2022-09-12T15:32:31.088Z,5.05
2022-09-12T15:35:03.024Z,3.53
2022-09-12T15:37:37.594Z,6.38
2022-09-12T15:40:11.136Z,6.05
2022-09-12T15:42:43.698Z,7.00
2022-09-12T15:45:22.401Z,4.72
2022-09-12T15:47:55.146Z,4.82
2022-09-12T15:50:28.370Z,5.95
2022-09-12T15:53:00.032Z,9.82
2022-09-12T15:55:32.286Z,5.85
2022-09-12T15:58:07.228Z,5.97
2022-09-12T16:00:39.844Z,4.78
2022-09-12T16:03:23.782Z,4.00
2022-09-12T16:06:01.489Z,5.35
2022-09-12T16:08:38.689Z,4.60
2022-09-12T16:11:18.753Z,4.35
2022-09-12T16:13:55.027Z,4.32
2022-09-12T16:16:26.777Z,5.13
2022-09-12T16:19:00.501Z,3.78
2022-09-12T16:21:32.229Z,3.92
2022-09-12T16:24:04.587Z,4.40
2022-09-12T16:26:39.369Z,5.32
2022-09-12T16:29:13.030Z,5.13
2022-09-12T16:31:47.542Z,3.75
2022-09-12T16:34:19.101Z,4.45
2022-09-12T16:36:50.764Z,3.88
2022-09-12T16:39:26.409Z,4.55
2022-09-12T16:41:58.060Z,5.22
2022-09-12T16:44:33.820Z,5.57
2022-09-12T16:47:05.865Z,4.13
2022-09-12T16:49:39.154Z,6.03
2022-09-12T16:52:13.383Z,4.53
2022-09-12T16:55:10.054Z,6.03
2022-09-12T16:57:43.852Z,6.32
2022-09-12T17:00:18.405Z,11.57
2022-09-12T17:02:50.355Z,5.00
2022-09-12T17:05:22.180Z,3.90
2022-09-12T17:07:58.675Z,3.70
2022-09-12T17:10:30.979Z,5.22
2022-09-12T17:13:02.916Z,5.03
2022-09-12T17:15:37.350Z,4.18
2022-09-12T17:18:11.374Z,5.15
2022-09-12T17:20:43.068Z,3.88
2022-09-12T17:23:14.821Z,5.10
2022-09-12T17:25:50.633Z,5.82
2022-09-12T17:28:25.265Z,8.45
2022-09-12T17:31:04.702Z,5.78
2022-09-12T17:33:39.119Z,4.50
2022-09-12T17:36:17.775Z,5.82
2022-09-12T17:39:19.632Z,9.40
2022-09-12T17:41:57.351Z,4.38
2022-09-12T17:44:30.604Z,4.13
2022-09-12T17:47:02.514Z,4.90
2022-09-12T17:49:40.560Z,5.40
2022-09-12T17:52:12.340Z,4.75
2022-09-12T17:54:46.593Z,5.63
2022-09-12T17:57:18.550Z,5.25
2022-09-12T17:59:54.481Z,8.18
2022-09-12T18:02:28.525Z,5.20
2022-09-12T18:05:05.311Z,5.32
2022-09-12T18:07:40.899Z,5.50
2022-09-12T18:13:15.566Z,5.30
2022-09-12T18:18:21.044Z,7.30
2022-09-12T18:20:57.121Z,5.80
2022-09-12T18:23:29.825Z,6.40
2022-09-12T18:26:04.805Z,6.07
2022-09-12T18:28:41.109Z,5.15
2022-09-12T18:31:18.693Z,6.55
2022-09-12T18:33:51.111Z,7.53
2022-09-12T18:36:25.297Z,6.47
2022-09-12T18:41:30.240Z,6.13
2022-09-12T18:44:05.365Z,5.50
2022-09-12T18:46:39.310Z,6.13
2022-09-12T18:49:11.222Z,8.02
2022-09-12T18:51:43.131Z,5.38
2022-09-12T18:54:22.447Z,6.65
2022-09-12T18:56:54.492Z,7.50
2022-09-12T18:59:26.191Z,6.60
2022-09-12T19:02:00.169Z,6.32
2022-09-12T19:04:33.936Z,7.75
2022-09-12T19:07:07.707Z,6.93
2022-09-12T19:09:39.469Z,7.03
2022-09-12T19:12:11.753Z,7.15
2022-09-12T19:14:45.433Z,5.85
2022-09-12T19:20:23.582Z,6.68
2022-09-12T19:22:57.398Z,9.90
2022-09-12T19:25:29.346Z,6.45
2022-09-12T19:28:02.192Z,6.25
2022-09-12T19:30:33.953Z,7.45
2022-09-12T19:33:10.983Z,7.47
2022-09-12T19:35:46.358Z,9.75
2022-09-12T19:38:18.830Z,5.75
2022-09-12T19:43:32.730Z,6.70
2022-09-12T19:46:04.874Z,7.68
2022-09-12T19:48:40.625Z,6.63
2022-09-12T19:51:13.066Z,7.05
2022-09-12T19:53:50.306Z,7.30
2022-09-12T19:56:21.972Z,6.07
2022-09-12T19:58:56.734Z,9.10
2022-09-12T20:01:29.189Z,6.43
2022-09-12T20:04:01.337Z,5.53
2022-09-12T20:06:35.049Z,5.65
2022-09-12T20:09:06.716Z,5.35
2022-09-12T20:11:38.344Z,6.13
2022-09-12T20:14:09.929Z,7.45
2022-09-12T20:16:41.525Z,8.38
2022-09-12T20:19:13.099Z,6.47
2022-09-12T20:21:44.741Z,7.70
2022-09-12T20:24:16.391Z,10.57
2022-09-12T20:26:47.965Z,6.55
2022-09-12T20:32:18.310Z,7.82
2022-09-12T20:37:49.385Z,12.63
2022-09-12T20:40:24.056Z,11.27
2022-09-12T20:42:55.678Z,9.23
2022-09-12T20:45:27.374Z,12.40
2022-09-12T20:47:59.132Z,10.25
2022-09-12T20:50:30.744Z,10.00
2022-09-12T20:53:02.332Z,12.20
2022-09-12T20:55:33.952Z,9.05
2022-09-12T20:58:05.636Z,10.63
2022-09-12T21:00:40.790Z,12.73
2022-09-12T21:03:13.366Z,10.20
2022-09-12T21:05:46.107Z,11.32
2022-09-12T21:08:19.764Z,11.75
2022-09-12T21:10:51.359Z,10.10
2022-09-12T21:13:22.971Z,9.95
2022-09-12T21:16:12.150Z,9.43
2022-09-12T21:18:44.628Z,13.30
2022-09-12T21:21:16.407Z,12.85
2022-09-12T21:23:48.876Z,11.60
2022-09-12T21:26:20.572Z,9.98
2022-09-12T21:28:52.250Z,9.95
2022-09-12T21:31:25.543Z,10.50
2022-09-12T21:33:57.440Z,12.33
2022-09-12T21:36:29.040Z,11.48
2022-09-12T21:39:00.787Z,11.77
2022-09-12T21:41:32.448Z,11.88
2022-09-12T21:44:07.742Z,9.93
2022-09-12T21:46:42.078Z,10.45
2022-09-12T21:49:13.701Z,12.20
2022-09-12T21:51:45.328Z,10.90
2022-09-12T21:54:17.083Z,10.15
2022-09-12T21:56:48.987Z,11.00
2022-09-12T21:59:20.956Z,9.10
2022-09-12T22:01:53.061Z,10.00
2022-09-12T22:04:26.280Z,412.87
2022-09-12T22:07:02.126Z,304.70
2022-09-12T22:09:34.465Z,212.57
2022-09-12T22:12:06.301Z,403.57
2022-09-12T22:14:38.812Z,128.87
2022-09-12T22:17:12.627Z,299.63
2022-09-12T22:19:44.529Z,398.90
2022-09-12T22:22:34.737Z,303.03
2022-09-12T22:25:07.833Z,209.90
2022-09-12T22:27:39.391Z,209.90
2022-09-12T22:30:13.387Z,297.53
2022-09-12T22:32:48.162Z,397.45
2022-09-12T22:35:19.887Z,84.50
2022-09-12T22:37:57.131Z,87.67
2022-09-12T22:40:28.644Z,88.20
2022-09-12T22:43:01.278Z,86.10
2022-09-12T22:48:09.313Z,84.03
2022-09-12T22:50:41.346Z,86.90
2022-09-12T22:53:12.906Z,83.70
2022-09-12T22:55:45.088Z,83.73
2022-09-12T22:58:16.662Z,82.00
2022-09-12T23:00:51.662Z,80.57
2022-09-12T23:03:23.702Z,78.23
2022-09-12T23:06:02.544Z,84.10
2022-09-12T23:08:36.377Z,80.00
2022-09-12T23:11:10.970Z,267.92
2022-09-12T23:16:26.215Z,80.67
2022-09-12T23:18:58.538Z,81.30
2022-09-12T23:21:30.909Z,80.40
2022-09-12T23:24:04.309Z,79.47
2022-09-12T23:26:40.912Z,78.43
2022-09-12T23:29:12.484Z,79.85
2022-09-12T23:31:44.108Z,84.07
2022-09-12T23:34:15.812Z,79.83
2022-09-12T23:36:49.362Z,77.45
2022-09-12T23:39:23.413Z,80.20
2022-09-12T23:41:55.540Z,79.63
2022-09-12T23:44:27.082Z,78.90
2022-09-12T23:46:58.633Z,75.57
2022-09-12T23:49:30.282Z,75.63
2022-09-12T23:52:02.392Z,81.80
2022-09-12T23:54:34.231Z,80.10
2022-09-12T23:57:05.806Z,78.73
2022-09-12T23:59:39.244Z,76.73
